Time;durP1;ratioP1;P1;durP2;ratioP2;P2;SDS_P1;SDS_P2;PMS_P1;PMS_P2;Temp;Humidity;BMP_temperature;BMP_pressure;BME280_temperature;BME280_humidity;BME280_pressure;Samples;Min_cycle;Max_cycle;Signal;HPM_P1;HPM_P2
2022/05/16 00:01:10;;;;;;;2.87;2.70;;;20.50;45.10;;;;;;5013579;28;20240;-57
2022/05/16 00:03:36;;;;;;;2.87;2.77;;;20.50;45.10;;;;;;5019524;28;20223;-60
2022/05/16 00:06:01;;;;;;;2.93;2.77;;;20.50;45.10;;;;;;5016101;28;20242;-57
2022/05/16 00:08:27;;;;;;;3.30;3.10;;;20.50;45.10;;;;;;5013210;28;20228;-57
2022/05/16 00:10:53;;;;;;;2.80;2.60;;;20.50;45.10;;;;;;5017447;28;20635;-57
2022/05/16 00:13:20;;;;;;;3.13;2.93;;;20.50;45.10;;;;;;5019084;28;20530;-57
2022/05/16 00:15:46;;;;;;;3.00;2.80;;;20.50;45.10;;;;;;5016496;28;20227;-58
2022/05/16 00:18:12;;;;;;;3.47;3.27;;;20.50;45.10;;;;;;5015438;28;20423;-57
2022/05/16 00:20:37;;;;;;;2.63;2.53;;;20.50;45.10;;;;;;5015484;28;20239;-58
2022/05/16 00:23:03;;;;;;;2.90;2.70;;;20.50;45.10;;;;;;5011999;28;20239;-57
2022/05/16 00:25:28;;;;;;;3.40;3.20;;;20.50;45.10;;;;;;5015395;28;20216;-57
2022/05/16 00:27:54;;;;;;;3.47;3.27;;;20.50;45.10;;;;;;5017853;28;20676;-56
2022/05/16 00:30:21;;;;;;;2.70;2.60;;;20.50;45.10;;;;;;5010935;28;20664;-57
2022/05/16 00:32:48;;;;;;;2.60;2.50;;;20.50;45.10;;;;;;5013841;28;20270;-58
2022/05/16 00:35:16;;;;;;;2.50;2.40;;;20.50;45.10;;;;;;5020417;28;20934;-57
2022/05/16 00:37:41;;;;;;;3.03;2.90;;;20.50;45.10;;;;;;5014657;28;20990;-58
2022/05/16 00:40:09;;;;;;;3.07;2.97;;;20.50;45.10;;;;;;5020668;28;20490;-57
2022/05/16 00:42:34;;;;;;;3.30;3.10;;;20.50;45.10;;;;;;5013062;28;20243;-57
2022/05/16 00:45:00;;;;;;;2.63;2.47;;;20.50;45.10;;;;;;5016953;28;20748;-57
2022/05/16 00:47:26;;;;;;;2.80;2.60;;;20.50;45.20;;;;;;5015578;28;20231;-57
2022/05/16 00:49:53;;;;;;;3.63;3.43;;;20.50;45.10;;;;;;5016566;28;20682;-57
2022/05/16 00:52:27;;;;;;;2.87;2.67;;;20.50;45.10;;;;;;5009084;28;20322;-57
2022/05/16 00:55:12;;;;;;;2.83;2.67;;;20.50;45.10;;;;;;5013807;28;20463;-57
2022/05/16 00:57:43;;;;;;;2.90;2.70;;;20.50;45.10;;;;;;5017189;28;20527;-58
2022/05/16 01:00:24;;;;;;;2.90;2.70;;;20.50;45.90;;;;;;5008849;28;20449;-57
2022/05/16 01:05:38;;;;;;;3.27;3.17;;;20.50;45.10;;;;;;5021449;28;20499;-57
2022/05/16 01:08:08;;;;;;;2.70;2.60;;;20.50;45.10;;;;;;5014350;28;20424;-57
2022/05/16 01:10:35;;;;;;;2.90;2.80;;;20.50;45.10;;;;;;5018508;28;20560;-58
2022/05/16 01:13:01;;;;;;;3.20;2.90;;;20.50;45.10;;;;;;5013780;28;21011;-57
2022/05/16 01:15:34;;;;;;;2.50;2.40;;;20.50;45.10;;;;;;5021061;28;20449;-57
2022/05/16 01:18:00;;;;;;;2.90;2.70;;;20.50;45.10;;;;;;5016126;28;20482;-57
2022/05/16 01:20:57;;;;;;;2.83;2.67;;;20.50;45.10;;;;;;5017248;28;20457;-57
2022/05/16 01:23:27;;;;;;;2.80;2.70;;;20.50;45.10;;;;;;5006293;28;20232;-57
2022/05/16 01:25:53;;;;;;;2.90;2.70;;;20.50;45.10;;;;;;5020655;28;20441;-57
2022/05/16 01:28:22;;;;;;;3.13;2.90;;;20.50;45.10;;;;;;5012850;28;21055;-57
2022/05/16 01:30:48;;;;;;;2.47;2.37;;;20.50;45.10;;;;;;5012618;28;20453;-57
2022/05/16 01:33:15;;;;;;;2.50;2.40;;;20.50;45.10;;;;;;5016847;28;20540;-57
2022/05/16 01:35:41;;;;;;;2.80;2.60;;;20.50;45.10;;;;;;5015827;28;20459;-58
2022/05/16 01:38:18;;;;;;;2.70;2.60;;;20.50;45.10;;;;;;5015091;28;20457;-57
2022/05/16 01:40:50;;;;;;;2.70;2.60;;;20.50;45.10;;;;;;5010866;28;20282;-57
2022/05/16 01:43:17;;;;;;;2.43;2.33;;;20.50;45.10;;;;;;5011305;28;20461;-58
2022/05/16 01:45:43;;;;;;;2.57;2.43;;;20.50;45.10;;;;;;5016510;28;20502;-59
2022/05/16 01:48:10;;;;;;;2.73;2.63;;;20.50;45.10;;;;;;5017144;28;20525;-58
2022/05/16 01:50:35;;;;;;;2.30;2.20;;;20.50;45.10;;;;;;5011488;28;20445;-58
2022/05/16 01:53:01;;;;;;;2.50;2.40;;;20.50;45.10;;;;;;5013554;28;20484;-58
2022/05/16 01:55:27;;;;;;;3.10;2.90;;;20.50;45.10;;;;;;5016516;28;20297;-58
2022/05/16 01:57:53;;;;;;;2.70;2.60;;;20.50;45.10;;;;;;5014235;28;20684;-58
2022/05/16 02:00:18;;;;;;;2.70;2.50;;;20.50;45.10;;;;;;5013640;28;20230;-60
2022/05/16 02:02:45;;;;;;;2.70;2.40;;;20.50;45.10;;;;;;5015799;28;20238;-59
2022/05/16 02:05:16;;;;;;;2.47;2.33;;;20.50;45.10;;;;;;5016204;28;20673;-58
2022/05/16 02:07:41;;;;;;;2.80;2.60;;;20.50;45.10;;;;;;5014848;28;20477;-58
2022/05/16 02:10:10;;;;;;;2.43;2.33;;;20.50;45.10;;;;;;5017819;28;20632;-57
2022/05/16 02:12:36;;;;;;;2.83;2.63;;;20.50;45.10;;;;;;5016015;28;20230;-57
2022/05/16 02:15:04;;;;;;;2.80;2.70;;;20.50;45.10;;;;;;5016005;28;20464;-58
2022/05/16 02:17:30;;;;;;;2.50;2.40;;;20.50;45.10;;;;;;5019843;28;20502;-58
2022/05/16 02:19:55;;;;;;;2.80;2.60;;;20.50;45.10;;;;;;5010479;28;20522;-58
2022/05/16 02:25:05;;;;;;;2.43;2.33;;;20.50;45.10;;;;;;5015728;28;20745;-57
2022/05/16 02:27:31;;;;;;;2.50;2.40;;;20.50;45.10;;;;;;5018700;28;20531;-58
2022/05/16 02:29:57;;;;;;;2.57;2.47;;;20.50;45.10;;;;;;5013392;28;20458;-58
2022/05/16 02:32:23;;;;;;;2.93;2.73;;;20.50;45.10;;;;;;5017821;28;20216;-57
2022/05/16 02:34:49;;;;;;;2.50;2.40;;;20.50;45.10;;;;;;5006852;28;21020;-58
2022/05/16 02:37:15;;;;;;;2.40;2.23;;;20.50;45.10;;;;;;5016252;28;20468;-57
2022/05/16 02:39:45;;;;;;;2.60;2.50;;;20.50;45.10;;;;;;5016029;28;20226;-61
2022/05/16 02:42:12;;;;;;;2.57;2.47;;;20.50;45.10;;;;;;5009067;28;20906;-57
2022/05/16 02:44:38;;;;;;;2.87;2.67;;;20.50;45.10;;;;;;5015492;28;20445;-57
2022/05/16 02:47:05;;;;;;;2.50;2.40;;;20.50;45.10;;;;;;5017744;28;20453;-57
2022/05/16 02:49:31;;;;;;;2.67;2.57;;;20.50;45.10;;;;;;5015768;28;20452;-57
2022/05/16 02:51:57;;;;;;;2.67;2.57;;;20.50;45.10;;;;;;5014702;28;20445;-58
2022/05/16 02:54:23;;;;;;;2.97;2.87;;;20.50;45.10;;;;;;5013993;28;20457;-58
2022/05/16 02:56:49;;;;;;;3.10;2.90;;;20.50;45.10;;;;;;5012629;28;20275;-57
2022/05/16 02:59:15;;;;;;;2.70;2.60;;;20.50;45.10;;;;;;5018027;28;20264;-57
2022/05/16 03:01:41;;;;;;;2.50;2.40;;;20.50;45.10;;;;;;5018348;28;21150;-59
2022/05/16 03:04:06;;;;;;;2.83;2.63;;;20.50;45.10;;;;;;5014516;28;20463;-58
2022/05/16 03:06:33;;;;;;;2.60;2.50;;;20.50;45.10;;;;;;5012740;28;20235;-58
2022/05/16 03:08:58;;;;;;;2.87;2.67;;;20.50;45.10;;;;;;5013507;28;20677;-57
2022/05/16 03:11:24;;;;;;;2.93;2.80;;;20.50;45.10;;;;;;5013241;28;20503;-58
2022/05/16 03:13:50;;;;;;;2.40;2.30;;;20.50;45.10;;;;;;5020434;28;20634;-57
2022/05/16 03:16:15;;;;;;;2.47;2.37;;;20.50;45.10;;;;;;5021023;28;20223;-58
2022/05/16 03:18:41;;;;;;;2.73;2.53;;;20.50;45.20;;;;;;5020972;28;20215;-58
2022/05/16 03:21:07;;;;;;;2.70;2.60;;;20.50;45.10;;;;;;5017665;28;20224;-58
2022/05/16 03:23:32;;;;;;;2.97;2.87;;;20.50;45.10;;;;;;5016947;28;20227;-58
2022/05/16 03:25:58;;;;;;;2.63;2.53;;;20.50;45.10;;;;;;5018207;28;20219;-57
2022/05/16 03:28:25;;;;;;;2.50;2.40;;;20.50;45.10;;;;;;5034741;28;20230;-57
2022/05/16 03:30:53;;;;;;;2.70;2.60;;;20.50;45.10;;;;;;5019529;28;20234;-57
2022/05/16 03:33:19;;;;;;;3.17;2.97;;;20.50;45.10;;;;;;5013591;28;20444;-57
2022/05/16 03:35:45;;;;;;;2.80;2.60;;;20.50;45.10;;;;;;5016573;28;20461;-58
2022/05/16 03:40:41;;;;;;;2.73;2.53;;;20.50;45.20;;;;;;5017321;28;20499;-58
2022/05/16 03:40:57;;;;;;;2.47;2.37;;;20.50;45.10;;;;;;5011515;28;20262;-57
2022/05/16 03:43:23;;;;;;;2.30;2.20;;;20.50;45.10;;;;;;5019452;28;20484;-57
2022/05/16 03:45:49;;;;;;;2.53;2.43;;;20.50;45.10;;;;;;5014903;28;20677;-57
2022/05/16 03:48:14;;;;;;;2.33;2.23;;;20.50;45.10;;;;;;5020893;28;20234;-58
2022/05/16 03:50:41;;;;;;;2.60;2.40;;;20.50;45.10;;;;;;5021881;28;20425;-57
2022/05/16 03:53:06;;;;;;;5.30;2.53;;;20.50;45.10;;;;;;5017430;28;20251;-57
2022/05/16 03:55:32;;;;;;;2.70;2.50;;;20.50;45.10;;;;;;5016363;28;20899;-57
2022/05/16 03:57:58;;;;;;;2.40;2.30;;;20.50;45.10;;;;;;5014844;28;20219;-57
2022/05/16 04:00:25;;;;;;;2.97;2.77;;;20.50;45.10;;;;;;5017482;28;21640;-57
2022/05/16 04:02:51;;;;;;;2.83;2.70;;;20.50;45.10;;;;;;5016571;28;20237;-57
2022/05/16 04:05:19;;;;;;;2.73;2.63;;;20.50;45.10;;;;;;5018619;28;20583;-57
2022/05/16 04:07:47;;;;;;;4.27;2.70;;;20.50;45.10;;;;;;5014533;28;20808;-58
2022/05/16 04:10:13;;;;;;;2.53;2.43;;;20.50;45.10;;;;;;5016607;28;20459;-58
2022/05/16 04:12:39;;;;;;;2.70;2.50;;;20.50;45.10;;;;;;5020398;28;20453;-57
2022/05/16 04:15:06;;;;;;;2.13;2.03;;;20.50;45.10;;;;;;5014623;28;20449;-58
2022/05/16 04:17:32;;;;;;;2.57;2.47;;;20.50;45.10;;;;;;5009244;28;20603;-57
2022/05/16 04:19:58;;;;;;;2.50;2.40;;;20.50;45.10;;;;;;5019416;28;20456;-57
2022/05/16 04:22:24;;;;;;;2.37;2.27;;;20.50;45.10;;;;;;5017892;28;20457;-57
2022/05/16 04:24:50;;;;;;;2.23;2.13;;;20.50;45.10;;;;;;5022999;28;20699;-57
2022/05/16 04:27:15;;;;;;;2.37;2.27;;;20.50;45.10;;;;;;5017867;28;20303;-57
2022/05/16 04:29:41;;;;;;;2.53;2.43;;;20.50;45.10;;;;;;5011000;28;20224;-60
2022/05/16 04:32:07;;;;;;;2.70;2.60;;;20.50;45.10;;;;;;5016067;28;20568;-58
2022/05/16 04:34:32;;;;;;;2.50;2.33;;;20.50;45.10;;;;;;5019102;28;20228;-58
2022/05/16 04:36:58;;;;;;;2.70;2.60;;;20.50;45.10;;;;;;5017087;28;20300;-57
2022/05/16 04:39:24;;;;;;;2.40;2.20;;;20.50;45.10;;;;;;5015048;28;20262;-58
2022/05/16 04:44:38;;;;;;;2.50;2.37;;;20.50;45.10;;;;;;5019131;28;20595;-58
2022/05/16 04:47:05;;;;;;;2.57;2.47;;;20.50;45.10;;;;;;5018234;28;21006;-59
2022/05/16 04:49:30;;;;;;;2.40;2.30;;;20.50;45.10;;;;;;5017953;28;20492;-58
2022/05/16 04:51:56;;;;;;;2.70;2.60;;;20.50;45.10;;;;;;5018972;28;20431;-59
2022/05/16 04:54:22;;;;;;;2.40;2.30;;;20.50;45.10;;;;;;5017145;28;20640;-58
2022/05/16 04:56:48;;;;;;;2.53;2.43;;;20.50;45.10;;;;;;5017437;28;20273;-58
2022/05/16 04:59:15;;;;;;;2.40;2.30;;;20.50;45.10;;;;;;5016317;28;20226;-59
2022/05/16 05:01:41;;;;;;;2.20;2.10;;;20.50;45.10;;;;;;5014334;28;21039;-58
2022/05/16 05:04:07;;;;;;;2.67;2.47;;;20.50;45.10;;;;;;5015067;28;20488;-58
2022/05/16 05:06:33;;;;;;;2.50;2.40;;;20.50;45.10;;;;;;5017724;28;20656;-58
2022/05/16 05:08:58;;;;;;;2.50;2.40;;;20.50;45.10;;;;;;5013147;28;20592;-58
2022/05/16 05:16:52;;;;;;;3.00;2.90;;;20.50;45.10;;;;;;5015678;28;20949;-58
2022/05/16 05:19:18;;;;;;;2.80;2.70;;;20.50;45.10;;;;;;5016659;28;20457;-58
2022/05/16 05:21:43;;;;;;;2.43;2.33;;;20.50;45.10;;;;;;5009390;28;20236;-58
2022/05/16 05:24:09;;;;;;;2.50;2.40;;;20.50;45.10;;;;;;5018632;28;20665;-58
2022/05/16 05:26:35;;;;;;;2.63;2.53;;;20.50;45.10;;;;;;5014129;28;20323;-58
2022/05/16 05:29:01;;;;;;;2.80;2.60;;;20.50;45.10;;;;;;5017756;28;20295;-58
2022/05/16 05:31:27;;;;;;;2.70;2.50;;;20.50;45.10;;;;;;5019143;28;20458;-58
2022/05/16 05:33:54;;;;;;;2.50;2.40;;;20.50;45.10;;;;;;5020053;28;20456;-58
2022/05/16 05:36:20;;;;;;;2.40;2.20;;;20.50;45.10;;;;;;5011633;28;20257;-59
2022/05/16 05:38:51;;;;;;;2.33;2.23;;;20.50;45.10;;;;;;5014047;28;20918;-60
2022/05/16 05:41:17;;;;;;;2.50;2.30;;;20.50;45.10;;;;;;5015074;28;20286;-59
2022/05/16 05:43:43;;;;;;;2.87;2.70;;;20.50;45.10;;;;;;5015087;28;20433;-59
2022/05/16 05:46:09;;;;;;;2.53;2.43;;;20.50;45.10;;;;;;5016380;28;21074;-58
2022/05/16 05:48:52;;;;;;;2.40;2.30;;;20.50;45.10;;;;;;4975890;28;20219;-62
2022/05/16 05:51:18;;;;;;;2.40;2.30;;;20.50;45.10;;;;;;5016816;28;20219;-60
2022/05/16 05:53:44;;;;;;;2.47;2.37;;;20.50;45.10;;;;;;5002425;28;20479;-58
2022/05/16 05:56:12;;;;;;;2.97;2.77;;;20.50;45.10;;;;;;5015169;28;20230;-59
2022/05/16 05:58:37;;;;;;;2.57;2.47;;;20.50;45.10;;;;;;4985668;28;20445;-60
2022/05/16 06:01:04;;;;;;;2.63;2.43;;;20.50;45.10;;;;;;5009953;28;20453;-60
2022/05/16 06:03:30;;;;;;;2.50;2.40;;;20.50;45.20;;;;;;5007585;28;20234;-58
2022/05/16 06:05:57;;;;;;;2.87;2.77;;;20.50;45.10;;;;;;5008928;28;20453;-58
2022/05/16 06:08:23;;;;;;;2.40;2.30;;;20.50;45.10;;;;;;5016807;28;20459;-57
2022/05/16 06:10:49;;;;;;;2.80;2.70;;;20.50;45.10;;;;;;5014662;28;20449;-59
2022/05/16 06:13:16;;;;;;;2.40;2.30;;;20.50;45.10;;;;;;5015486;28;20499;-58
2022/05/16 06:15:42;;;;;;;2.23;2.13;;;20.50;45.10;;;;;;5014663;28;20462;-60
2022/05/16 06:18:07;;;;;;;2.57;2.37;;;20.50;45.10;;;;;;5016494;28;20567;-58
2022/05/16 06:20:33;;;;;;;2.63;2.53;;;20.50;45.10;;;;;;5016313;28;20229;-58
2022/05/16 06:22:59;;;;;;;2.30;2.20;;;20.50;45.10;;;;;;5015425;28;20624;-58
2022/05/16 06:25:33;;;;;;;2.60;2.40;;;20.50;45.10;;;;;;5018568;28;20737;-58
2022/05/16 06:28:07;;;;;;;2.50;2.40;;;20.50;45.10;;;;;;5016965;28;20219;-58
2022/05/16 06:30:35;;;;;;;2.50;2.40;;;20.50;45.10;;;;;;5021252;28;20528;-58
2022/05/16 06:33:00;;;;;;;3.30;2.33;;;20.50;45.10;;;;;;5011065;28;20463;-59
2022/05/16 06:35:26;;;;;;;2.40;2.30;;;20.50;45.10;;;;;;5012422;28;20452;-58
2022/05/16 06:37:52;;;;;;;2.77;2.57;;;20.50;45.10;;;;;;5015265;28;20691;-57
2022/05/16 06:40:20;;;;;;;2.53;2.43;;;20.50;45.10;;;;;;5019230;28;20231;-58
2022/05/16 06:42:46;;;;;;;2.70;2.50;;;20.50;45.10;;;;;;5014546;28;20234;-58
2022/05/16 06:45:13;;;;;;;2.40;2.30;;;20.50;45.10;;;;;;5015151;28;20449;-58
2022/05/16 06:47:39;;;;;;;2.50;2.30;;;20.50;45.10;;;;;;5016360;28;20426;-58
2022/05/16 06:50:05;;;;;;;2.50;2.40;;;20.50;45.10;;;;;;5017786;28;20540;-58
2022/05/16 06:52:31;;;;;;;2.13;2.03;;;20.50;45.10;;;;;;5019354;28;20465;-58
2022/05/16 06:54:57;;;;;;;3.43;3.20;;;20.50;45.10;;;;;;5018010;28;20917;-58
2022/05/16 06:57:22;;;;;;;2.77;2.57;;;20.50;45.10;;;;;;5013159;28;20224;-58
2022/05/16 06:59:48;;;;;;;2.70;2.60;;;20.50;45.10;;;;;;5020843;28;20223;-59
2022/05/16 07:02:13;;;;;;;2.30;2.20;;;20.50;45.20;;;;;;5019036;28;20262;-58
2022/05/16 07:04:40;;;;;;;2.40;2.30;;;20.50;45.10;;;;;;5016150;28;20295;-59
2022/05/16 07:07:09;;;;;;;2.90;2.43;;;20.50;45.10;;;;;;5017663;28;20372;-59
2022/05/16 07:09:41;;;;;;;2.50;2.40;;;20.50;45.10;;;;;;5018130;28;20484;-58
2022/05/16 07:12:08;;;;;;;2.53;2.43;;;20.50;45.10;;;;;;5018070;28;20545;-58
2022/05/16 07:14:35;;;;;;;3.90;2.77;;;20.50;45.10;;;;;;5018643;28;20452;-58
2022/05/16 07:17:01;;;;;;;2.77;2.10;;;20.50;45.10;;;;;;5015688;28;20515;-58
2022/05/16 07:19:31;;;;;;;2.70;2.60;;;20.50;45.10;;;;;;5019969;28;20455;-58
2022/05/16 07:21:58;;;;;;;2.60;2.40;;;20.50;45.10;;;;;;5018558;28;20457;-58
2022/05/16 07:24:25;;;;;;;2.50;2.40;;;20.50;45.10;;;;;;5021201;28;20471;-58
2022/05/16 07:29:35;;;;;;;2.60;2.40;;;20.50;45.10;;;;;;5019013;28;20523;-59
2022/05/16 07:32:01;;;;;;;2.50;2.40;;;20.50;45.10;;;;;;5011244;28;20481;-58
2022/05/16 07:34:26;;;;;;;2.50;2.40;;;20.50;45.10;;;;;;5015694;28;20223;-58
2022/05/16 07:36:52;;;;;;;6.83;2.73;;;20.50;45.10;;;;;;5018110;28;20239;-58
2022/05/16 07:39:17;;;;;;;2.50;2.30;;;20.50;45.10;;;;;;5013620;28;20227;-59
2022/05/16 07:41:43;;;;;;;2.53;2.33;;;20.50;45.10;;;;;;5018872;28;20236;-58
2022/05/16 07:44:09;;;;;;;2.53;2.43;;;20.50;45.10;;;;;;5019527;28;20618;-58
2022/05/16 07:46:35;;;;;;;2.93;2.40;;;20.50;45.10;;;;;;5020355;28;20459;-58
2022/05/16 07:49:00;;;;;;;3.03;2.40;;;20.50;45.10;;;;;;5014603;28;20336;-60
2022/05/16 07:51:26;;;;;;;3.07;2.87;;;20.50;45.10;;;;;;5020415;28;20695;-58
2022/05/16 07:53:52;;;;;;;4.60;3.13;;;20.50;45.10;;;;;;5017354;28;20222;-58
2022/05/16 07:56:18;;;;;;;2.67;2.47;;;20.50;45.10;;;;;;5015949;28;20227;-57
2022/05/16 07:58:44;;;;;;;2.90;2.43;;;20.50;45.10;;;;;;5019121;28;20243;-58
2022/05/16 08:01:09;;;;;;;2.90;2.70;;;20.50;45.10;;;;;;5017571;28;20247;-58
2022/05/16 08:03:35;;;;;;;3.43;2.73;;;20.50;45.10;;;;;;5017913;28;20479;-58
2022/05/16 08:06:00;;;;;;;3.00;2.70;;;20.50;45.10;;;;;;5032932;28;21014;-59
2022/05/16 08:11:12;;;;;;;3.60;3.30;;;20.50;45.10;;;;;;5017899;28;20273;-58
2022/05/16 08:13:39;;;;;;;2.30;2.10;;;20.50;45.10;;;;;;5019657;28;20448;-58
2022/05/16 08:16:05;;;;;;;4.13;3.13;;;20.50;45.10;;;;;;5016071;28;20953;-58
2022/05/16 08:18:30;;;;;;;3.33;2.93;;;20.50;45.90;;;;;;5017186;28;20523;-58
2022/05/16 08:20:56;;;;;;;3.60;2.73;;;20.50;45.10;;;;;;5018024;28;20420;-58
2022/05/16 08:23:28;;;;;;;4.20;2.77;;;20.50;45.90;;;;;;5012075;28;20783;-58
2022/05/16 08:25:56;;;;;;;6.50;3.03;;;20.50;45.10;;;;;;5013321;28;20235;-57
2022/05/16 08:28:22;;;;;;;3.53;2.77;;;20.50;45.10;;;;;;5017388;28;20465;-58
2022/05/16 08:30:50;;;;;;;4.83;3.03;;;20.50;44.90;;;;;;5016737;28;20973;-58
2022/05/16 08:33:15;;;;;;;8.30;3.33;;;20.50;44.60;;;;;;5018633;28;20483;-58
2022/05/16 08:35:41;;;;;;;3.53;3.00;;;20.50;44.30;;;;;;5017799;28;20930;-58
2022/05/16 08:40:51;;;;;;;3.10;2.90;;;20.50;44.30;;;;;;5018849;28;20221;-58
2022/05/16 08:43:27;;;;;;;2.83;2.73;;;20.50;44.40;;;;;;5017027;28;20547;-58
2022/05/16 08:46:12;;;;;;;3.20;2.90;;;20.50;44.30;;;;;;5017779;28;20518;-59
2022/05/16 08:48:43;;;;;;;4.40;3.40;;;20.50;44.50;;;;;;5015037;28;20460;-59
2022/05/16 08:51:17;;;;;;;6.93;3.30;;;20.50;44.50;;;;;;5010919;28;20536;-57
2022/05/16 08:54:19;;;;;;;4.80;3.17;;;20.50;44.30;;;;;;5017224;28;20608;-58
2022/05/16 08:56:46;;;;;;;3.40;3.00;;;20.50;44.20;;;;;;5010228;28;20503;-57
2022/05/16 08:59:23;;;;;;;3.90;2.57;;;20.50;44.30;;;;;;5015987;28;20461;-58
2022/05/16 09:01:54;;;;;;;4.63;3.30;;;20.50;44.20;;;;;;5012948;28;20530;-59
2022/05/16 09:04:26;;;;;;;5.37;3.10;;;20.50;44.20;;;;;;5009626;28;20439;-58
2022/05/16 09:07:09;;;;;;;8.10;3.43;;;20.60;44.40;;;;;;5014099;28;20829;-57
2022/05/16 09:10:11;;;;;;;5.70;4.23;;;20.60;44.30;;;;;;5016687;28;20461;-58
2022/05/16 09:13:08;;;;;;;7.07;3.67;;;20.60;44.30;;;;;;5016270;28;21201;-57
2022/05/16 09:15:57;;;;;;;10.53;3.67;;;20.60;44.40;;;;;;5011236;28;20426;-57
2022/05/16 09:18:41;;;;;;;4.13;3.33;;;20.60;44.60;;;;;;5015245;28;20431;-57
2022/05/16 09:21:11;;;;;;;4.00;2.90;;;20.50;44.60;;;;;;5015422;28;20519;-57
2022/05/16 09:24:05;;;;;;;3.60;3.10;;;20.50;44.70;;;;;;5014552;28;20453;-57
2022/05/16 09:26:33;;;;;;;6.00;3.93;;;20.50;44.70;;;;;;5016428;28;20536;-59
2022/05/16 09:29:13;;;;;;;5.80;3.13;;;20.50;44.90;;;;;;5013842;28;21000;-57
2022/05/16 09:31:42;;;;;;;7.03;3.23;;;20.50;45.00;;;;;;5016655;28;20532;-59
2022/05/16 09:34:09;;;;;;;3.93;3.23;;;20.50;45.10;;;;;;5020865;28;20495;-58
2022/05/16 09:36:38;;;;;;;5.47;3.23;;;20.50;45.10;;;;;;5012679;28;20452;-57
2022/05/16 09:39:05;;;;;;;6.10;3.40;;;20.50;45.10;;;;;;5018538;28;20432;-57
2022/05/16 09:41:48;;;;;;;3.17;2.97;;;20.50;45.10;;;;;;5016016;28;20918;-58
2022/05/16 09:44:29;;;;;;;5.20;3.10;;;20.50;45.10;;;;;;5020645;28;20456;-57
2022/05/16 09:47:16;;;;;;;4.50;2.93;;;20.50;45.10;;;;;;5013518;28;20470;-57
2022/05/16 09:49:42;;;;;;;3.50;3.30;;;20.50;45.10;;;;;;5014624;28;20448;-57
2022/05/16 09:52:16;;;;;;;3.97;3.10;;;20.50;45.10;;;;;;5016760;28;20460;-57
2022/05/16 09:54:41;;;;;;;4.93;2.70;;;20.50;45.10;;;;;;5017985;28;20428;-58
2022/05/16 09:57:20;;;;;;;3.50;3.20;;;20.50;45.10;;;;;;5013016;28;20452;-57
2022/05/16 10:00:10;;;;;;;4.07;3.07;;;20.50;45.10;;;;;;5011922;28;20298;-57
2022/05/16 10:02:36;;;;;;;3.50;3.20;;;20.60;45.20;;;;;;5016828;28;20438;-58
2022/05/16 10:05:26;;;;;;;3.70;3.30;;;20.50;45.20;;;;;;5018270;28;20432;-58
2022/05/16 10:08:03;;;;;;;3.20;3.00;;;20.60;45.20;;;;;;5013560;28;20234;-57
2022/05/16 10:10:34;;;;;;;2.73;2.57;;;20.60;45.20;;;;;;5018124;28;20453;-57
2022/05/16 10:13:00;;;;;;;3.30;3.00;;;20.60;46.00;;;;;;5011211;28;20452;-57
2022/05/16 10:15:26;;;;;;;3.60;3.40;;;20.60;45.20;;;;;;5016451;28;20441;-57
2022/05/16 10:17:56;;;;;;;2.70;2.50;;;20.60;45.20;;;;;;5013266;28;20506;-57
2022/05/16 10:20:29;;;;;;;3.00;2.80;;;20.50;45.10;;;;;;5020492;28;20764;-57
2022/05/16 10:23:02;;;;;;;2.70;2.50;;;20.50;45.10;;;;;;5017889;28;20461;-57
2022/05/16 10:25:33;;;;;;;3.10;2.87;;;20.60;45.20;;;;;;5019898;28;20444;-57
2022/05/16 10:28:01;;;;;;;3.13;2.83;;;20.60;45.20;;;;;;5014187;28;20444;-58
2022/05/16 10:30:30;;;;;;;2.90;2.70;;;20.60;45.20;;;;;;5021906;28;20851;-57
2022/05/16 10:36:12;;;;;;;3.73;3.20;;;20.50;45.10;;;;;;5011877;28;20495;-58
2022/05/16 10:38:58;;;;;;;3.43;2.87;;;20.50;45.10;;;;;;5017278;28;20453;-59
2022/05/16 10:41:30;;;;;;;3.50;3.20;;;20.50;45.10;;;;;;5017493;28;20996;-57
2022/05/16 10:44:08;;;;;;;3.97;3.00;;;20.50;45.10;;;;;;5017799;28;20440;-59
2022/05/16 10:46:39;;;;;;;4.97;3.20;;;20.50;45.10;;;;;;5019828;28;20546;-58
2022/05/16 10:49:16;;;;;;;2.70;2.50;;;20.50;45.10;;;;;;5013200;28;20754;-58
2022/05/16 10:52:04;;;;;;;2.80;2.70;;;20.50;45.10;;;;;;5019098;28;20441;-58
2022/05/16 10:54:30;;;;;;;4.43;2.70;;;20.50;45.10;;;;;;5017811;28;20570;-58
2022/05/16 10:57:23;;;;;;;4.27;3.30;;;20.50;45.10;;;;;;5020283;28;20531;-58
2022/05/16 11:00:00;;;;;;;3.07;2.87;;;20.60;45.20;;;;;;5017520;28;20222;-59
2022/05/16 11:03:01;;;;;;;11.07;3.97;;;20.60;45.20;;;;;;5003401;28;20416;-58
2022/05/16 11:06:06;;;;;;;12.00;4.80;;;20.60;45.20;;;;;;5011009;28;20775;-58
2022/05/16 11:08:40;;;;;;;12.40;4.17;;;20.60;45.20;;;;;;5013545;28;20482;-58
2022/05/16 11:11:32;;;;;;;21.80;6.97;;;20.60;45.20;;;;;;5018200;28;20818;-58
2022/05/16 11:14:04;;;;;;;11.27;5.70;;;20.60;45.20;;;;;;5014341;28;20440;-58
2022/05/16 11:16:37;;;;;;;15.30;7.20;;;20.60;45.20;;;;;;5017392;28;20431;-59
2022/05/16 11:19:16;;;;;;;29.77;9.70;;;20.60;45.20;;;;;;5014457;28;20529;-60
2022/05/16 11:22:00;;;;;;;44.60;19.20;;;20.60;45.20;;;;;;5017261;28;20487;-58
2022/05/16 11:24:54;;;;;;;34.57;14.13;;;20.60;45.20;;;;;;5017171;28;20977;-58
2022/05/16 11:28:00;;;;;;;43.30;17.33;;;20.60;45.20;;;;;;5014174;28;20480;-63
2022/05/16 11:31:03;;;;;;;42.23;18.87;;;20.60;45.20;;;;;;4997799;28;20456;-60
2022/05/16 11:33:34;;;;;;;48.73;18.93;;;20.60;45.20;;;;;;5011519;28;20447;-59
2022/05/16 11:36:21;;;;;;;47.33;17.27;;;20.60;45.20;;;;;;5020135;28;20455;-60
2022/05/16 11:39:12;;;;;;;44.57;16.20;;;20.60;45.20;;;;;;5015198;28;20530;-59
2022/05/16 11:41:46;;;;;;;33.93;14.30;;;20.70;45.30;;;;;;5014126;28;21274;-59
2022/05/16 11:44:31;;;;;;;42.03;16.70;;;20.70;45.40;;;;;;5018113;28;20990;-60
2022/05/16 11:47:16;;;;;;;29.07;15.13;;;20.70;45.30;;;;;;5012986;28;20456;-59
2022/05/16 11:50:04;;;;;;;33.40;13.30;;;20.70;45.50;;;;;;5019000;28;20446;-60
2022/05/16 11:52:43;;;;;;;26.17;13.00;;;20.70;45.60;;;;;;5020218;28;20575;-59
2022/05/16 12:01:03;;;;;;;20.37;10.83;;;20.80;45.90;;;;;;5013996;28;20496;-59
2022/05/16 12:03:40;;;;;;;14.90;8.93;;;20.80;45.90;;;;;;5016505;28;20431;-59
2022/05/16 12:06:26;;;;;;;18.33;10.13;;;20.80;46.70;;;;;;5019602;28;20449;-59
2022/05/16 12:09:24;;;;;;;11.30;7.50;;;20.80;45.90;;;;;;5011437;28;20424;-59
2022/05/16 12:11:58;;;;;;;18.97;8.30;;;20.80;45.90;;;;;;5016260;28;20432;-59
2022/05/16 12:14:34;;;;;;;13.00;8.30;;;20.90;46.10;;;;;;5015023;28;20540;-58
2022/05/16 12:17:16;;;;;;;9.77;7.33;;;20.90;46.20;;;;;;5013491;28;20484;-58
2022/05/16 12:19:46;;;;;;;9.80;7.43;;;20.90;46.10;;;;;;5015262;28;20423;-58
2022/05/16 12:22:22;;;;;;;9.23;6.80;;;20.90;46.10;;;;;;5016320;28;20468;-58
2022/05/16 12:24:51;;;;;;;11.77;6.60;;;20.90;46.10;;;;;;5013914;28;20566;-58
2022/05/16 12:27:35;;;;;;;9.47;6.83;;;20.90;46.20;;;;;;5020451;28;20449;-58
2022/05/16 12:30:08;;;;;;;11.80;6.37;;;20.90;46.10;;;;;;5018834;28;20449;-59
2022/05/16 12:32:34;;;;;;;9.13;6.30;;;20.90;46.20;;;;;;5017896;28;21011;-58
2022/05/16 12:35:13;;;;;;;8.20;5.50;;;20.90;46.20;;;;;;5017681;28;20445;-58
2022/05/16 12:37:38;;;;;;;9.80;5.93;;;20.90;46.20;;;;;;5013772;28;20707;-58
2022/05/16 12:40:08;;;;;;;11.53;5.23;;;20.90;46.10;;;;;;5015982;28;21255;-59
2022/05/16 12:43:00;;;;;;;8.93;5.60;;;21.00;47.00;;;;;;5018725;28;20261;-59
2022/05/16 12:45:57;;;;;;;5.83;4.70;;;21.00;46.20;;;;;;5012183;28;20430;-58
2022/05/16 12:48:42;;;;;;;6.80;5.07;;;21.00;46.10;;;;;;5018318;28;20545;-59
2022/05/16 12:51:10;;;;;;;4.83;4.27;;;21.00;46.20;;;;;;5016182;28;20592;-59
2022/05/16 12:54:13;;;;;;;4.83;4.20;;;21.00;46.30;;;;;;5010173;28;20945;-59
2022/05/16 12:56:48;;;;;;;6.17;4.10;;;21.10;46.40;;;;;;5016064;28;20411;-58
2022/05/16 12:59:25;;;;;;;4.10;3.70;;;21.10;46.40;;;;;;5011518;28;20471;-58
2022/05/16 13:02:15;;;;;;;3.80;3.43;;;21.10;46.30;;;;;;5017264;28;20960;-58
2022/05/16 13:05:08;;;;;;;3.53;3.23;;;21.10;46.20;;;;;;5010836;28;20830;-58
2022/05/16 13:07:36;;;;;;;4.77;4.17;;;21.10;46.30;;;;;;5014369;28;20462;-58
2022/05/16 13:10:06;;;;;;;4.33;3.27;;;21.10;46.50;;;;;;5014731;28;20440;-59
2022/05/16 13:13:01;;;;;;;4.33;3.93;;;21.10;46.50;;;;;;5017431;28;20448;-59
2022/05/16 13:15:59;;;;;;;3.80;3.40;;;21.10;46.40;;;;;;4916427;28;20455;-58
2022/05/16 13:18:29;;;;;;;4.40;3.97;;;21.00;46.30;;;;;;5015438;28;20451;-58
2022/05/16 13:21:00;;;;;;;4.27;3.80;;;21.00;46.30;;;;;;5013661;28;20949;-58
2022/05/16 13:23:26;;;;;;;5.10;3.50;;;21.00;46.30;;;;;;5012814;28;20573;-58
2022/05/16 13:31:34;;;;;;;6.00;4.27;;;21.00;46.20;;;;;;5013689;28;20511;-60
2022/05/16 13:34:04;;;;;;;5.23;4.00;;;21.00;46.20;;;;;;5015161;28;20498;-59
2022/05/16 13:36:31;;;;;;;4.70;4.13;;;21.00;46.10;;;;;;5014813;28;20441;-60
2022/05/16 13:39:03;;;;;;;3.93;3.63;;;21.00;46.10;;;;;;5014547;28;21022;-59
2022/05/16 13:41:32;;;;;;;3.93;3.60;;;21.00;46.10;;;;;;5014377;28;20467;-59